METAR Data
IDs: Format: Raw Decoded Include TAF

Data at: 1545 UTC 03 Dec 2021

LDRI 031530Z 04015G26KT 360V090 CAVOK 08/M04 Q1012